Time;durP1;ratioP1;P1;durP2;ratioP2;P2;SDS_P1;SDS_P2;PMS_P1;PMS_P2;Temp;Humidity;BMP_temperature;BMP_pressure;BME280_temperature;BME280_humidity;BME280_pressure;Samples;Min_cycle;Max_cycle;Signal;HPM_P1;HPM_P2
2021/01/02 00:00:16;;;;;;;57.58;41.75;;;;;;;-1.04;100.00;95183.94;1024572;28;20399;-70
2021/01/02 00:00:47;;;;;;;57.55;41.40;;;;;;;-1.03;100.00;95185.53;1028334;28;20022;-70
2021/01/02 00:01:18;;;;;;;57.40;40.65;;;;;;;-0.94;100.00;95193.00;1016531;29;20043;-70
2021/01/02 00:02:28;;;;;;;52.13;39.22;;;;;;;-0.93;100.00;95186.78;1020692;29;20023;-69
2021/01/02 00:03:16;;;;;;;56.28;40.08;;;;;;;-0.95;100.00;95194.81;1017525;29;20400;-71
2021/01/02 00:04:20;;;;;;;52.80;37.63;;;;;;;-0.97;100.00;95189.06;1029926;28;20038;-71
2021/01/02 00:04:50;;;;;;;54.83;37.28;;;;;;;-0.95;100.00;95194.00;1032571;28;20738;-72
2021/01/02 00:05:22;;;;;;;51.22;38.35;;;;;;;-0.93;100.00;95192.78;1032698;28;20258;-73
2021/01/02 00:06:23;;;;;;;52.47;36.85;;;;;;;-0.92;100.00;95198.78;1028288;28;20030;-70
2021/01/02 00:06:57;;;;;;;;;;;;;;;-0.98;100.00;95194.47;1020251;29;20886;-71
2021/01/02 00:07:49;;;;;;;50.97;35.65;;;;;;;-1.01;100.00;95187.91;1017520;28;19955;-71
2021/01/02 00:08:19;;;;;;;55.33;37.13;;;;;;;-1.02;100.00;95188.91;1022216;29;20764;-70
2021/01/02 00:08:50;;;;;;;50.58;37.85;;;;;;;-1.00;100.00;95192.88;1020368;29;20324;-71
2021/01/02 00:09:22;;;;;;;50.17;37.45;;;;;;;-1.02;100.00;95187.09;1023391;29;20455;-70
2021/01/02 00:09:56;;;;;;;53.95;39.25;;;;;;;-0.98;100.00;95187.44;1020632;29;20117;-72
2021/01/02 00:10:33;;;;;;;53.35;40.08;;;;;;;-0.96;100.00;95182.03;1021743;28;20271;-69
2021/01/02 00:11:42;;;;;;;52.95;38.75;;;;;;;-0.96;100.00;95180.22;1016499;29;20272;-71
2021/01/02 00:12:22;;;;;;;57.20;39.05;;;;;;;-0.94;100.00;95185.22;1022201;28;20815;-70
2021/01/02 00:13:02;;;;;;;50.30;37.05;;;;;;;-0.98;100.00;95179.66;1028200;28;20283;-69
2021/01/02 00:14:02;;;;;;;54.35;37.17;;;;;;;-0.97;100.00;95180.44;1032360;28;20261;-72
2021/01/02 00:15:08;;;;;;;56.85;38.42;;;;;;;-1.06;100.00;95179.97;1032399;28;20019;-70
2021/01/02 00:16:18;;;;;;;53.25;36.83;;;;;;;-1.00;100.00;95184.28;1018641;28;20303;-71
2021/01/02 00:17:11;;;;;;;54.92;36.97;;;;;;;-0.96;100.00;95190.63;1032200;28;20730;-71
2021/01/02 00:18:08;;;;;;;57.80;39.97;;;;;;;-0.92;100.00;95183.19;1032326;28;20258;-70
2021/01/02 00:19:01;;;;;;;54.83;37.90;;;;;;;-0.94;100.00;95190.41;1032329;28;20249;-70
2021/01/02 00:19:37;;;;;;;55.10;37.08;;;;;;;-0.97;100.00;95190.84;1028304;28;20262;-69
2021/01/02 00:20:13;;;;;;;58.15;40.05;;;;;;;-0.97;100.00;95189.06;1024245;29;20263;-70
2021/01/02 00:20:56;;;;;;;58.35;39.78;;;;;;;-0.95;100.00;95192.22;1020461;29;20271;-71
2021/01/02 00:21:27;;;;;;;55.60;38.75;;;;;;;-0.96;100.00;95198.41;1026698;28;20259;-72
2021/01/02 00:22:10;;;;;;;56.75;40.20;;;;;;;-1.00;100.00;95187.66;1022431;29;20263;-71
2021/01/02 00:22:47;;;;;;;54.40;39.25;;;;;;;-0.96;100.00;95200.22;1023731;29;20270;-71
2021/01/02 00:23:41;;;;;;;58.20;40.75;;;;;;;-0.97;100.00;95193.44;1024240;29;20270;-73
2021/01/02 00:24:23;;;;;;;57.92;39.17;;;;;;;-0.97;100.00;95203.81;1028779;28;20258;-71
2021/01/02 00:24:57;;;;;;;59.53;39.63;;;;;;;-0.99;100.00;95196.28;1032342;28;20741;-69
2021/01/02 00:25:29;;;;;;;64.22;41.67;;;;;;;-1.00;100.00;95198.06;1028185;28;20345;-71
2021/01/02 00:26:09;;;;;;;65.22;42.03;;;;;;;-0.99;100.00;95198.88;1026523;28;20669;-70
2021/01/02 00:26:46;;;;;;;58.15;40.05;;;;;;;-1.03;100.00;95198.50;1023333;28;20283;-69
2021/01/02 00:27:27;;;;;;;56.72;39.53;;;;;;;-1.06;100.00;95193.75;1027011;28;20055;-69
2021/01/02 00:28:36;;;;;;;58.15;40.78;;;;;;;-1.16;100.00;95203.06;1032291;28;20264;-70
2021/01/02 00:29:07;;;;;;;52.65;37.17;;;;;;;-1.13;100.00;95198.25;1016267;29;20284;-70
2021/01/02 00:29:53;;;;;;;54.53;40.58;;;;;;;-1.11;100.00;95191.03;1016420;29;20268;-70
2021/01/02 00:30:35;;;;;;;56.40;39.78;;;;;;;-1.13;100.00;95193.06;1016447;29;20268;-71
2021/01/02 00:31:20;;;;;;;56.10;40.30;;;;;;;-1.15;100.00;95204.66;1015995;29;20317;-70
2021/01/02 00:32:08;;;;;;;58.97;40.70;;;;;;;-1.16;100.00;95192.69;1015384;29;20344;-71
2021/01/02 00:32:48;;;;;;;54.72;40.70;;;;;;;-1.17;100.00;95193.69;1016523;29;20645;-70
2021/01/02 00:34:09;;;;;;;55.25;39.78;;;;;;;-1.12;100.00;95186.84;1016450;29;20272;-71
2021/01/02 00:34:53;;;;;;;51.83;37.72;;;;;;;-1.12;100.00;95199.03;1004625;29;20509;-70
2021/01/02 00:35:23;;;;;;;53.00;38.03;;;;;;;-1.12;100.00;95193.84;1017332;29;20261;-70
2021/01/02 00:35:54;;;;;;;52.92;39.80;;;;;;;-1.13;100.00;95190.47;1024537;29;20253;-70
2021/01/02 00:36:40;;;;;;;56.65;39.53;;;;;;;-1.15;100.00;95192.47;1016631;29;20024;-72
2021/01/02 00:37:43;;;;;;;52.78;39.17;;;;;;;-1.15;100.00;95196.84;1020632;29;20020;-71
2021/01/02 00:38:14;;;;;;;52.15;37.83;;;;;;;-1.20;100.00;95185.34;1024206;28;20263;-70
2021/01/02 00:38:45;;;;;;;52.67;39.40;;;;;;;-1.15;100.00;95189.06;1034798;28;20345;-71
2021/01/02 00:39:53;;;;;;;58.42;40.67;;;;;;;-1.16;100.00;95187.50;1028491;28;20383;-70
2021/01/02 00:40:24;;;;;;;50.33;37.22;;;;;;;-1.21;100.00;95190.72;1019993;29;20710;-70
2021/01/02 00:40:54;;;;;;;56.70;41.13;;;;;;;-1.17;100.00;95186.69;1025257;28;20255;-72
2021/01/02 00:41:26;;;;;;;54.97;39.70;;;;;;;-1.09;100.00;95188.19;1024469;29;20580;-71
2021/01/02 00:41:57;;;;;;;51.60;39.00;;;;;;;-1.05;100.00;95184.97;1024559;29;20388;-71
2021/01/02 00:42:28;;;;;;;58.08;42.65;;;;;;;-1.00;100.00;95182.47;1020847;29;20256;-69
2021/01/02 00:42:58;;;;;;;55.80;40.22;;;;;;;-0.97;100.00;95183.88;1024517;28;20011;-70
2021/01/02 00:43:29;;;;;;;52.67;40.63;;;;;;;-0.96;100.00;95190.63;1020781;29;20500;-70
2021/01/02 00:43:59;;;;;;;54.70;40.20;;;;;;;-0.93;100.00;95189.38;1020628;29;20027;-71
2021/01/02 00:44:31;;;;;;;49.00;37.22;;;;;;;-0.89;100.00;95187.94;1016722;29;20492;-69
2021/01/02 00:45:04;;;;;;;48.00;37.40;;;;;;;-0.87;100.00;95185.94;1016934;29;20031;-69
2021/01/02 00:45:35;;;;;;;49.50;36.22;;;;;;;-0.88;100.00;95182.53;1021180;29;20266;-70
2021/01/02 00:46:07;;;;;;;45.05;36.28;;;;;;;-0.82;100.00;95176.44;1018039;29;20356;-70
2021/01/02 00:46:42;;;;;;;57.70;40.03;;;;;;;-0.76;100.00;95184.38;1020480;29;20038;-69
2021/01/02 00:47:14;;;;;;;52.60;39.55;;;;;;;-0.73;100.00;95186.50;1012622;29;20265;-69
2021/01/02 00:47:45;;;;;;;49.90;38.60;;;;;;;-0.77;100.00;95182.78;1020498;29;20322;-70
2021/01/02 00:48:15;;;;;;;49.45;38.35;;;;;;;-0.75;100.00;95189.34;1016588;29;20256;-70
2021/01/02 00:48:48;;;;;;;50.25;37.35;;;;;;;-0.77;100.00;95187.97;1016953;29;20024;-70
2021/01/02 00:49:18;;;;;;;53.63;40.30;;;;;;;-0.77;100.00;95190.56;1013572;29;20029;-71
2021/01/02 00:49:49;;;;;;;53.47;40.70;;;;;;;-0.75;100.00;95196.31;1016585;29;20760;-70
2021/01/02 00:50:22;;;;;;;44.72;35.40;;;;;;;-0.72;100.00;95196.69;1012746;29;20032;-70
2021/01/02 00:50:56;;;;;;;51.45;39.45;;;;;;;-0.70;100.00;95189.47;1013295;29;20020;-71
2021/01/02 00:51:31;;;;;;;56.05;40.53;;;;;;;-0.64;100.00;95188.56;1018503;29;20296;-69
2021/01/02 00:52:14;;;;;;;53.63;40.70;;;;;;;-0.67;100.00;95191.63;1024138;29;20271;-70
2021/01/02 00:52:44;;;;;;;49.67;36.10;;;;;;;-0.65;100.00;95183.63;1024627;29;20740;-70
2021/01/02 00:53:23;;;;;;;50.88;36.17;;;;;;;-0.65;100.00;95188.81;1028999;28;20252;-70
2021/01/02 00:54:04;;;;;;;47.70;35.97;;;;;;;-0.64;100.00;95192.97;1028073;28;20023;-69
2021/01/02 00:54:58;;;;;;;49.60;38.75;;;;;;;-0.62;100.00;95185.75;1022920;29;20031;-69
2021/01/02 00:55:48;;;;;;;51.08;37.38;;;;;;;-0.60;100.00;95186.31;1024715;28;20767;-71
2021/01/02 00:56:45;;;;;;;52.17;36.95;;;;;;;-0.53;100.00;95188.84;1032097;28;20268;-71
2021/01/02 00:57:35;;;;;;;51.63;37.13;;;;;;;-0.55;100.00;95190.88;1032029;28;20393;-70
2021/01/02 00:58:12;;;;;;;50.15;36.15;;;;;;;-0.65;100.00;95191.41;1028423;28;20294;-71
2021/01/02 00:58:52;;;;;;;56.45;37.92;;;;;;;-0.65;100.00;95196.59;1016545;29;20031;-70
2021/01/02 00:59:28;;;;;;;49.72;36.42;;;;;;;-0.66;100.00;95197.59;1016642;29;20275;-71
2021/01/02 01:00:08;;;;;;;55.42;38.53;;;;;;;-0.78;100.00;95191.59;1022605;28;20031;-71
2021/01/02 01:00:43;;;;;;;50.33;37.80;;;;;;;-0.81;100.00;95200.63;1030565;28;20670;-70
2021/01/02 01:01:18;;;;;;;52.05;38.70;;;;;;;-0.83;100.00;95194.88;1028467;28;20455;-71
2021/01/02 01:02:14;;;;;;;51.22;37.95;;;;;;;-0.81;100.00;95196.22;1024417;29;20259;-71
2021/01/02 01:02:57;;;;;;;46.00;35.22;;;;;;;-0.81;100.00;95196.22;1020538;29;20272;-70
2021/01/02 01:03:45;;;;;;;48.35;36.75;;;;;;;-0.83;100.00;95192.25;1019151;29;20268;-70
2021/01/02 01:04:34;;;;;;;51.55;36.55;;;;;;;-0.80;100.00;95191.81;1022479;29;20764;-73
2021/01/02 01:05:09;;;;;;;48.40;35.50;;;;;;;-0.78;100.00;95186.41;1026173;28;20619;-71
2021/01/02 01:05:39;;;;;;;51.53;37.25;;;;;;;-0.78;100.00;95187.19;1032500;28;20315;-69
2021/01/02 01:06:10;;;;;;;49.42;38.50;;;;;;;-0.79;100.00;95185.63;1027415;28;20857;-71
2021/01/02 01:06:41;;;;;;;47.65;36.25;;;;;;;-0.76;100.00;95189.56;1028095;28;20406;-69
2021/01/02 01:07:16;;;;;;;51.13;37.85;;;;;;;-0.76;100.00;95179.19;1024366;29;20054;-69
2021/01/02 01:07:53;;;;;;;52.38;39.08;;;;;;;-0.71;100.00;95195.69;1025147;28;20294;-71
2021/01/02 01:08:24;;;;;;;48.50;36.20;;;;;;;-0.70;100.00;95191.28;1028365;28;20305;-71
2021/01/02 01:09:04;;;;;;;49.63;37.83;;;;;;;-0.68;100.00;95194.44;1030066;28;20598;-70
2021/01/02 01:09:41;;;;;;;55.85;39.53;;;;;;;-0.66;100.00;95197.59;1024433;29;20483;-69
2021/01/02 01:10:13;;;;;;;47.88;37.95;;;;;;;-0.67;100.00;95193.44;1020055;29;20298;-69
2021/01/02 01:10:44;;;;;;;51.38;38.53;;;;;;;-0.71;100.00;95194.91;1016451;29;20268;-70
2021/01/02 01:11:15;;;;;;;54.97;40.08;;;;;;;-0.74;100.00;95193.53;1013653;29;20284;-69
2021/01/02 01:11:46;;;;;;;53.20;39.70;;;;;;;-0.76;100.00;95202.56;1017443;29;20319;-70
2021/01/02 01:12:18;;;;;;;50.78;37.72;;;;;;;-0.81;100.00;95200.63;1016308;29;20087;-70
2021/01/02 01:12:56;;;;;;;49.35;38.08;;;;;;;-0.82;100.00;95197.22;1013009;29;20481;-70
2021/01/02 01:13:26;;;;;;;50.15;38.08;;;;;;;-0.81;100.00;95203.22;1012674;29;20352;-70
2021/01/02 01:13:56;;;;;;;51.58;37.30;;;;;;;-0.85;100.00;95205.47;1013824;29;20257;-70
2021/01/02 01:14:27;;;;;;;52.33;38.90;;;;;;;-0.89;100.00;95204.31;1013711;29;20441;-73
2021/01/02 01:14:57;;;;;;;50.35;38.03;;;;;;;-0.88;100.00;95205.09;1020152;29;20468;-72
2021/01/02 01:15:28;;;;;;;51.80;40.30;;;;;;;-0.88;100.00;95203.28;1016494;29;20039;-71
2021/01/02 01:15:59;;;;;;;50.90;38.63;;;;;;;-0.92;100.00;95196.19;1016587;29;20063;-70
2021/01/02 01:16:34;;;;;;;49.30;37.13;;;;;;;-0.83;100.00;95198.25;1008868;29;20025;-71
2021/01/02 01:17:05;;;;;;;50.53;38.85;;;;;;;-0.78;100.00;95199.38;1013322;29;20055;-70
2021/01/02 01:17:45;;;;;;;53.15;39.50;;;;;;;-0.73;100.00;95205.50;1016501;29;20260;-69
2021/01/02 01:18:38;;;;;;;47.80;37.10;;;;;;;-0.69;100.00;95198.06;1018655;29;20168;-69
2021/01/02 01:19:11;;;;;;;51.65;37.30;;;;;;;-0.66;100.00;95198.41;1025314;28;20259;-72
2021/01/02 01:19:41;;;;;;;51.45;37.88;;;;;;;-0.65;100.00;95194.00;1032609;28;20628;-70
2021/01/02 01:20:16;;;;;;;50.40;37.30;;;;;;;-0.64;100.00;95204.16;1028385;28;20290;-71
2021/01/02 01:20:48;;;;;;;50.35;38.63;;;;;;;-0.63;100.00;95200.56;1028376;28;20023;-70
2021/01/02 01:21:19;;;;;;;51.90;38.80;;;;;;;-0.60;100.00;95202.69;1024396;29;20333;-71
2021/01/02 01:21:50;;;;;;;51.72;39.80;;;;;;;-0.58;100.00;95201.69;1025004;28;20305;-71
2021/01/02 01:22:24;;;;;;;54.30;40.10;;;;;;;-0.60;100.00;95202.69;1028385;28;20270;-70
2021/01/02 01:23:09;;;;;;;53.25;39.08;;;;;;;-0.62;100.00;95201.34;1029075;28;20270;-70
2021/01/02 01:23:59;;;;;;;44.22;33.40;;;;;;;-0.58;100.00;95199.09;1024368;29;20341;-71
2021/01/02 01:24:52;;;;;;;50.65;35.78;;;;;;;-0.65;100.00;95194.78;1024403;29;20651;-70
2021/01/02 01:25:38;;;;;;;47.67;34.22;;;;;;;-0.64;100.00;95196.38;1025697;28;20035;-69
2021/01/02 01:26:27;;;;;;;49.40;35.55;;;;;;;-0.59;100.00;95195.72;1027663;28;20279;-72
2021/01/02 01:27:05;;;;;;;43.30;32.88;;;;;;;-0.55;100.00;95198.66;1026361;28;20271;-71
2021/01/02 01:28:03;;;;;;;47.38;35.45;;;;;;;-0.57;100.00;95205.91;1024340;29;20289;-69
2021/01/02 01:28:33;;;;;;;46.45;34.97;;;;;;;-0.65;100.00;95209.59;1028138;28;20672;-71
2021/01/02 01:29:04;;;;;;;48.47;35.65;;;;;;;-0.67;100.00;95216.81;1024291;29;20282;-70
2021/01/02 01:29:58;;;;;;;48.78;34.95;;;;;;;-0.81;100.00;95209.22;1016371;29;20500;-70
2021/01/02 01:30:29;;;;;;;49.40;35.78;;;;;;;-0.85;100.00;95215.06;1012514;29;20052;-71
2021/01/02 01:31:00;;;;;;;46.42;35.20;;;;;;;-0.87;100.00;95211.91;1015717;29;20276;-71
2021/01/02 01:31:54;;;;;;;46.90;36.65;;;;;;;-0.86;100.00;95214.25;1018978;29;20321;-69
2021/01/02 01:32:26;;;;;;;48.38;35.17;;;;;;;-0.88;100.00;95205.09;1016455;29;20498;-71
2021/01/02 01:33:01;;;;;;;46.10;34.38;;;;;;;-0.81;100.00;95205.81;1023258;29;20255;-70
2021/01/02 01:33:32;;;;;;;51.22;37.03;;;;;;;-0.79;100.00;95209.00;1020295;29;20267;-69
2021/01/02 01:34:05;;;;;;;48.45;37.45;;;;;;;-0.75;100.00;95202.34;1013420;29;20284;-71
2021/01/02 01:34:37;;;;;;;45.00;34.50;;;;;;;-0.72;100.00;95206.28;1012442;29;20079;-72
2021/01/02 01:35:08;;;;;;;47.55;36.28;;;;;;;-0.69;100.00;95195.47;1008569;29;20281;-70
2021/01/02 01:35:42;;;;;;;49.00;37.45;;;;;;;-0.67;100.00;95202.03;1012341;29;20288;-70
2021/01/02 01:36:13;;;;;;;49.28;36.58;;;;;;;-0.65;100.00;95199.22;1012244;29;20289;-69
2021/01/02 01:36:43;;;;;;;47.08;37.17;;;;;;;-0.62;100.00;95199.53;1020021;29;20267;-71
2021/01/02 01:37:15;;;;;;;49.50;37.05;;;;;;;-0.65;100.00;95200.00;1016143;29;20081;-70
2021/01/02 01:37:45;;;;;;;49.00;36.90;;;;;;;-0.60;100.00;95199.31;1016503;29;20103;-71
2021/01/02 01:38:18;;;;;;;49.78;37.45;;;;;;;-0.58;100.00;95206.91;1010491;29;20258;-70
2021/01/02 01:38:54;;;;;;;49.75;37.38;;;;;;;-0.58;100.00;95206.91;1017106;29;20036;-72
2021/01/02 01:39:24;;;;;;;52.38;36.25;;;;;;;-0.60;100.00;95197.50;1024216;29;20275;-71
2021/01/02 01:39:58;;;;;;;51.55;37.22;;;;;;;-0.60;100.00;95204.50;1026284;28;20267;-71
2021/01/02 01:40:31;;;;;;;51.58;37.15;;;;;;;-0.53;100.00;95210.41;1029333;28;20046;-71
2021/01/02 01:41:31;;;;;;;48.88;36.55;;;;;;;-0.57;100.00;95205.91;1032325;28;20337;-71
2021/01/02 01:42:06;;;;;;;47.17;34.28;;;;;;;-0.62;100.00;95209.94;1030885;28;20316;-71
2021/01/02 01:42:38;;;;;;;44.63;33.90;;;;;;;-0.57;100.00;95201.47;1032355;28;20101;-71
2021/01/02 01:43:19;;;;;;;46.38;34.42;;;;;;;-0.54;100.00;95203.63;1032180;28;20269;-72
2021/01/02 01:44:16;;;;;;;43.65;32.42;;;;;;;-0.51;100.00;95205.78;1036627;28;20275;-72
2021/01/02 01:44:53;;;;;;;44.42;33.33;;;;;;;-0.48;100.00;95204.53;1020150;29;20263;-71
2021/01/02 01:45:39;;;;;;;46.85;35.53;;;;;;;-0.48;100.00;95205.31;1022758;28;20811;-71
2021/01/02 01:46:13;;;;;;;47.55;34.63;;;;;;;-0.47;100.00;95204.31;1032197;28;20284;-70
2021/01/02 01:46:50;;;;;;;47.65;35.22;;;;;;;-0.44;100.00;95206.50;1032297;28;20803;-70
2021/01/02 01:47:21;;;;;;;46.30;35.35;;;;;;;-0.45;100.00;95204.91;1031694;28;20345;-70
2021/01/02 01:48:39;;;;;;;47.85;35.55;;;;;;;-0.49;100.00;95202.97;1024192;29;20273;-71
2021/01/02 01:49:10;;;;;;;43.25;30.95;;;;;;;-0.49;100.00;95208.97;1014304;29;20374;-70
2021/01/02 01:49:58;;;;;;;46.50;34.20;;;;;;;-0.54;100.00;95218.44;1014725;29;20269;-69
2021/01/02 01:51:02;;;;;;;47.65;34.58;;;;;;;-0.56;100.00;95216.03;1015294;29;20260;-70
2021/01/02 01:51:56;;;;;;;49.95;34.80;;;;;;;-0.65;100.00;95223.38;1022776;29;20267;-71
2021/01/02 01:52:50;;;;;;;46.05;34.20;;;;;;;-0.64;100.00;95221.56;1027759;28;20762;-71
2021/01/02 01:53:48;;;;;;;46.33;33.22;;;;;;;-0.68;100.00;95223.81;1029841;28;20373;-71
2021/01/02 01:54:44;;;;;;;46.45;33.35;;;;;;;-0.65;100.00;95223.38;1019979;29;20287;-70
2021/01/02 01:55:18;;;;;;;45.92;32.88;;;;;;;-0.64;100.00;95218.97;1036695;28;20434;-72
2021/01/02 01:55:57;;;;;;;47.47;34.58;;;;;;;-0.65;100.00;95222.59;1028185;28;20683;-71
2021/01/02 01:56:33;;;;;;;49.45;34.92;;;;;;;-0.63;100.00;95221.34;1024262;29;20677;-68
2021/01/02 01:57:04;;;;;;;46.30;33.63;;;;;;;-0.60;100.00;95212.31;1024178;29;20278;-69
2021/01/02 01:57:38;;;;;;;50.38;35.42;;;;;;;-0.66;100.00;95219.19;1028292;28;20263;-72
2021/01/02 01:58:11;;;;;;;45.63;35.95;;;;;;;-0.59;100.00;95213.91;1029631;28;20263;-72
2021/01/02 01:58:51;;;;;;;48.17;35.33;;;;;;;-0.62;100.00;95202.13;1028134;28;20743;-71
2021/01/02 01:59:22;;;;;;;;;;;;;;;-0.55;100.00;95216.88;1032738;28;20249;-70
2021/01/02 01:59:58;;;;;;;46.58;35.25;;;;;;;-0.54;100.00;95210.63;1026340;28;19910;-71
2021/01/02 02:00:56;;;;;;;49.90;36.60;;;;;;;-0.51;100.00;95210.19;1024280;29;20244;-70
2021/01/02 02:01:26;;;;;;;48.10;35.00;;;;;;;-0.51;100.00;95218.00;1028238;28;20301;-71
2021/01/02 02:01:57;;;;;;;51.05;37.33;;;;;;;-0.51;100.00;95212.81;1020183;29;20660;-71
2021/01/02 02:02:40;;;;;;;49.90;35.90;;;;;;;-0.46;100.00;95207.72;1019800;29;20031;-72
2021/01/02 02:03:32;;;;;;;48.05;36.58;;;;;;;-0.54;100.00;95213.22;1020250;29;20430;-71
2021/01/02 02:04:11;;;;;;;48.60;35.38;;;;;;;-0.57;100.00;95211.09;1028693;28;20270;-71
2021/01/02 02:05:00;;;;;;;47.83;36.00;;;;;;;-0.53;100.00;95215.63;1031999;28;20348;-71
2021/01/02 02:05:46;;;;;;;47.75;34.53;;;;;;;-0.53;100.00;95213.00;1028858;28;20306;-70
2021/01/02 02:06:37;;;;;;;49.35;35.60;;;;;;;-0.48;100.00;95214.94;1028223;28;20368;-71
2021/01/02 02:07:16;;;;;;;45.38;33.78;;;;;;;-0.50;100.00;95209.97;1027907;28;20290;-71
2021/01/02 02:08:00;;;;;;;51.45;35.30;;;;;;;-0.49;100.00;95208.97;1023752;29;20259;-70
2021/01/02 02:08:42;;;;;;;46.10;34.58;;;;;;;-0.54;100.00;95211.41;1020129;29;20267;-72
2021/01/02 02:09:21;;;;;;;48.30;34.10;;;;;;;-0.53;100.00;95213.00;1020195;29;20271;-71
2021/01/02 02:09:59;;;;;;;46.85;35.50;;;;;;;-0.56;100.00;95213.44;1020165;29;20279;-71
2021/01/02 02:10:49;;;;;;;48.80;35.70;;;;;;;-0.55;100.00;95211.66;1015978;29;20020;-71
2021/01/02 02:11:31;;;;;;;44.67;33.58;;;;;;;-0.60;100.00;95212.31;1016282;29;20772;-71
2021/01/02 02:12:03;;;;;;;47.15;34.78;;;;;;;-0.58;100.00;95212.09;1016563;29;20272;-71
2021/01/02 02:12:34;;;;;;;46.58;35.17;;;;;;;-0.56;100.00;95215.25;1023195;29;21226;-70
2021/01/02 02:13:11;;;;;;;47.60;35.83;;;;;;;-0.57;100.00;95214.47;1021970;29;20290;-70
2021/01/02 02:13:44;;;;;;;47.17;34.53;;;;;;;-0.54;100.00;95213.22;1024110;29;20266;-71
2021/01/02 02:14:16;;;;;;;46.05;34.70;;;;;;;-0.58;100.00;95217.28;1021653;29;20653;-71
2021/01/02 02:14:53;;;;;;;42.85;33.60;;;;;;;-0.61;100.00;95216.72;1025775;28;20258;-70
2021/01/02 02:15:28;;;;;;;43.20;32.63;;;;;;;-0.62;100.00;95224.72;1020195;29;20331;-71
2021/01/02 02:15:58;;;;;;;41.35;31.23;;;;;;;-0.62;100.00;95222.91;1020171;29;20306;-72
2021/01/02 02:16:39;;;;;;;36.85;30.00;;;;;;;-0.63;100.00;95220.56;1021684;29;20786;-72
2021/01/02 02:17:10;;;;;;;42.70;32.90;;;;;;;-0.62;100.00;95215.13;1028857;28;20473;-71
2021/01/02 02:17:43;;;;;;;43.45;33.80;;;;;;;-0.60;100.00;95218.28;1028097;28;20273;-70
2021/01/02 02:18:34;;;;;;;40.88;31.52;;;;;;;-0.57;100.00;95221.50;1028188;28;20117;-70
2021/01/02 02:19:06;;;;;;;41.42;31.80;;;;;;;-0.55;100.00;95220.25;1023889;28;20650;-70
2021/01/02 02:19:56;;;;;;;44.88;32.70;;;;;;;-0.54;100.00;95221.03;1027442;28;20771;-70
2021/01/02 02:20:26;;;;;;;43.63;31.90;;;;;;;-0.61;100.00;95227.13;1028188;28;20301;-72
2021/01/02 02:20:58;;;;;;;41.65;32.10;;;;;;;-0.62;100.00;95225.50;1020143;29;20023;-71
2021/01/02 02:21:30;;;;;;;43.58;33.22;;;;;;;-0.56;100.00;95223.06;1008044;29;20025;-70
2021/01/02 02:22:03;;;;;;;43.17;32.28;;;;;;;-0.58;100.00;95228.47;1012349;29;20261;-71
2021/01/02 02:22:38;;;;;;;46.15;34.35;;;;;;;-0.60;100.00;95231.28;1012265;29;20272;-71
2021/01/02 02:23:09;;;;;;;42.13;32.38;;;;;;;-0.56;100.00;95223.06;1017428;29;20644;-71
2021/01/02 02:23:41;;;;;;;43.25;32.63;;;;;;;-0.56;100.00;95230.84;1016137;29;20275;-71
2021/01/02 02:24:11;;;;;;;43.40;32.90;;;;;;;-0.55;100.00;95222.84;1018170;29;20039;-71
2021/01/02 02:24:43;;;;;;;44.97;33.95;;;;;;;-0.54;100.00;95221.03;1020185;29;20262;-70
2021/01/02 02:25:17;;;;;;;44.92;34.70;;;;;;;-0.54;100.00;95221.03;1020080;29;20034;-69
2021/01/02 02:25:48;;;;;;;48.30;36.28;;;;;;;-0.58;100.00;95227.69;1020011;29;20291;-71
2021/01/02 02:26:27;;;;;;;44.85;33.72;;;;;;;-0.58;100.00;95225.09;1024972;28;20271;-70
2021/01/02 02:26:57;;;;;;;41.25;31.38;;;;;;;-0.58;100.00;95219.88;1020254;29;20672;-71
2021/01/02 02:27:28;;;;;;;36.67;28.58;;;;;;;-0.57;100.00;95217.06;1020115;29;20256;-71
2021/01/02 02:27:58;;;;;;;42.38;32.22;;;;;;;-0.58;100.00;95219.88;1021328;29;20095;-72
2021/01/02 02:28:35;;;;;;;40.55;32.50;;;;;;;-0.58;100.00;95212.88;1020372;28;20047;-71
2021/01/02 02:29:11;;;;;;;40.83;31.30;;;;;;;-0.60;100.00;95214.91;1028031;28;20117;-71
2021/01/02 02:30:02;;;;;;;45.53;33.90;;;;;;;-0.55;100.00;95216.88;1028060;28;20266;-71
2021/01/02 02:30:33;;;;;;;42.63;30.75;;;;;;;-0.61;100.00;95208.94;1028123;28;20642;-72
2021/01/02 02:31:05;;;;;;;40.22;32.08;;;;;;;-0.59;100.00;95213.91;1024063;29;20270;-71
2021/01/02 02:31:43;;;;;;;39.78;31.30;;;;;;;-0.61;100.00;95215.94;1024073;29;20250;-71
2021/01/02 02:32:13;;;;;;;41.67;32.97;;;;;;;-0.65;100.00;95209.59;1027050;28;20270;-72
2021/01/02 02:32:45;;;;;;;45.97;33.53;;;;;;;-0.62;100.00;95209.13;1021262;28;20268;-70
2021/01/02 02:33:15;;;;;;;41.35;32.35;;;;;;;-0.63;100.00;95205.75;1020193;29;20527;-71
2021/01/02 02:34:01;;;;;;;43.13;33.33;;;;;;;-0.64;100.00;95211.16;1020141;29;20294;-73
2021/01/02 02:34:36;;;;;;;42.53;31.45;;;;;;;-0.68;100.00;95215.22;1020113;29;20036;-71
2021/01/02 02:35:09;;;;;;;44.55;33.83;;;;;;;-0.61;100.00;95206.31;1022882;29;20278;-69
2021/01/02 02:35:40;;;;;;;45.58;34.55;;;;;;;-0.63;100.00;95204.97;1027175;28;20758;-70
2021/01/02 02:36:11;;;;;;;46.13;34.13;;;;;;;-0.62;100.00;95211.75;1025632;28;20278;-72
2021/01/02 02:36:42;;;;;;;45.90;34.08;;;;;;;-0.58;100.00;95204.31;1023690;29;20122;-71
2021/01/02 02:37:12;;;;;;;39.15;31.67;;;;;;;-0.53;100.00;95201.84;1024014;29;20294;-71
2021/01/02 02:37:51;;;;;;;42.47;32.50;;;;;;;-0.56;100.00;95205.66;1024284;28;20035;-71
2021/01/02 02:38:22;;;;;;;41.97;32.28;;;;;;;-0.57;100.00;95201.47;1029047;28;20527;-70
2021/01/02 02:39:01;;;;;;;44.28;34.35;;;;;;;-0.65;100.00;95200.00;1025247;28;20290;-71
2021/01/02 02:39:32;;;;;;;44.38;32.80;;;;;;;-0.66;100.00;95193.19;1028142;28;20026;-71
2021/01/02 02:40:05;;;;;;;42.28;32.67;;;;;;;-0.65;100.00;95200.00;1024061;29;20519;-70
2021/01/02 02:40:36;;;;;;;44.15;33.83;;;;;;;-0.65;100.00;95197.41;1021486;29;20075;-71
2021/01/02 02:41:09;;;;;;;45.03;34.08;;;;;;;-0.63;100.00;95197.19;1022976;29;20275;-72
2021/01/02 02:41:50;;;;;;;45.63;34.50;;;;;;;-0.66;100.00;95197.59;1020875;29;20271;-70
2021/01/02 02:42:22;;;;;;;45.28;33.58;;;;;;;-0.71;100.00;95190.50;1023926;28;20367;-71
2021/01/02 02:42:56;;;;;;;44.20;34.00;;;;;;;-0.71;100.00;95190.50;1024561;28;20283;-71
2021/01/02 02:43:27;;;;;;;43.08;33.97;;;;;;;-0.68;100.00;95190.03;1020043;29;20255;-69
2021/01/02 02:44:00;;;;;;;42.45;32.22;;;;;;;-0.66;100.00;95185.41;1020964;29;20267;-70
2021/01/02 02:44:33;;;;;;;37.58;29.13;;;;;;;-0.64;100.00;95185.97;1028015;28;20415;-71
2021/01/02 02:45:12;;;;;;;42.92;33.95;;;;;;;-0.64;100.00;95185.97;1024825;28;20806;-71
2021/01/02 02:45:43;;;;;;;43.05;31.27;;;;;;;-0.62;100.00;95189.13;1026021;28;20806;-70
2021/01/02 02:46:13;;;;;;;41.00;30.60;;;;;;;-0.60;100.00;95189.72;1026440;28;20122;-70
2021/01/02 02:46:44;;;;;;;41.13;33.15;;;;;;;-0.68;100.00;95191.84;1021604;29;20472;-70
2021/01/02 02:47:16;;;;;;;41.53;32.47;;;;;;;-0.70;100.00;95191.28;1024281;28;20032;-72
2021/01/02 02:47:49;;;;;;;40.28;31.42;;;;;;;-0.67;100.00;95190.84;1020478;29;20267;-72
2021/01/02 02:48:20;;;;;;;41.72;31.40;;;;;;;-0.67;100.00;95196.03;1023032;29;20278;-71
2021/01/02 02:48:57;;;;;;;39.72;32.08;;;;;;;-0.66;100.00;95193.19;1020059;29;20259;-71
2021/01/02 02:49:32;;;;;;;43.03;33.30;;;;;;;-0.73;100.00;95195.13;1017410;29;20020;-71
2021/01/02 02:50:03;;;;;;;39.45;30.10;;;;;;;-0.70;100.00;95193.88;1016155;29;20839;-71
2021/01/02 02:50:34;;;;;;;42.63;31.85;;;;;;;-0.73;100.00;95192.53;1020087;29;20255;-71
2021/01/02 02:51:04;;;;;;;45.03;34.60;;;;;;;-0.74;100.00;95190.91;1020816;29;20744;-70
2021/01/02 02:51:41;;;;;;;41.10;32.17;;;;;;;-0.78;100.00;95189.00;1016201;29;20119;-70
2021/01/02 02:52:39;;;;;;;41.45;31.50;;;;;;;-0.84;100.00;95191.44;1021082;29;20484;-71
2021/01/02 02:53:10;;;;;;;42.40;31.52;;;;;;;-0.87;100.00;95191.91;1021027;28;20395;-70
2021/01/02 02:53:41;;;;;;;42.58;33.10;;;;;;;-0.89;100.00;95186.16;1024151;28;20285;-70
2021/01/02 02:54:11;;;;;;;44.30;33.40;;;;;;;-0.83;100.00;95181.88;1020065;29;20695;-71